sensor_id;sensor_type;location;lat;lon;timestamp;pressure;altitude;pressure_sealevel;temperature;humidity
34177;BME280;20450;49.074;9.158;2022-08-01T00:00:16;99497.50;;;23.39;53.74
34177;BME280;20450;49.074;9.158;2022-08-01T00:02:44;99486.66;;;23.40;53.24
34177;BME280;20450;49.074;9.158;2022-08-01T00:05:13;99488.31;;;23.41;53.41
34177;BME280;20450;49.074;9.158;2022-08-01T00:07:41;99497.94;;;23.42;54.04
34177;BME280;20450;49.074;9.158;2022-08-01T00:10:10;99495.06;;;23.44;53.31
34177;BME280;20450;49.074;9.158;2022-08-01T00:12:39;99488.72;;;23.45;53.79
34177;BME280;20450;49.074;9.158;2022-08-01T00:15:09;99489.75;;;23.44;53.89
34177;BME280;20450;49.074;9.158;2022-08-01T00:17:39;99491.16;;;23.40;53.75
34177;BME280;20450;49.074;9.158;2022-08-01T00:20:10;99493.03;;;23.39;53.50
34177;BME280;20450;49.074;9.158;2022-08-01T00:22:41;99492.38;;;23.37;53.24
34177;BME280;20450;49.074;9.158;2022-08-01T00:25:08;99495.69;;;23.39;53.62
34177;BME280;20450;49.074;9.158;2022-08-01T00:27:35;99494.28;;;23.43;53.76
34177;BME280;20450;49.074;9.158;2022-08-01T00:30:05;99491.81;;;23.42;53.90
34177;BME280;20450;49.074;9.158;2022-08-01T00:32:41;99499.78;;;23.42;53.73
34177;BME280;20450;49.074;9.158;2022-08-01T00:35:09;99502.44;;;23.42;53.83
34177;BME280;20450;49.074;9.158;2022-08-01T00:37:37;99491.56;;;23.37;53.80
34177;BME280;20450;49.074;9.158;2022-08-01T00:40:04;99498.72;;;23.36;53.68
34177;BME280;20450;49.074;9.158;2022-08-01T00:42:33;99495.47;;;23.41;53.63
34177;BME280;20450;49.074;9.158;2022-08-01T00:45:09;99500.81;;;23.41;53.64
34177;BME280;20450;49.074;9.158;2022-08-01T00:47:37;99506.13;;;23.41;54.65
34177;BME280;20450;49.074;9.158;2022-08-01T00:50:06;99500.81;;;23.41;54.17
34177;BME280;20450;49.074;9.158;2022-08-01T00:52:34;99505.47;;;23.39;53.79
34177;BME280;20450;49.074;9.158;2022-08-01T00:55:02;99503.84;;;23.38;53.65
34177;BME280;20450;49.074;9.158;2022-08-01T00:57:30;99501.59;;;23.35;54.00
34177;BME280;20450;49.074;9.158;2022-08-01T01:00:17;99504.25;;;23.35;54.27
34177;BME280;20450;49.074;9.158;2022-08-01T01:02:52;99504.44;;;23.33;55.25
34177;BME280;20450;49.074;9.158;2022-08-01T01:05:21;99508.31;;;23.31;54.55
34177;BME280;20450;49.074;9.158;2022-08-01T01:07:53;99504.22;;;23.28;55.00
34177;BME280;20450;49.074;9.158;2022-08-01T01:10:32;99505.22;;;23.27;55.18
34177;BME280;20450;49.074;9.158;2022-08-01T01:13:10;99502.56;;;23.27;55.06
34177;BME280;20450;49.074;9.158;2022-08-01T01:15:49;99500.72;;;23.28;55.39
34177;BME280;20450;49.074;9.158;2022-08-01T01:18:24;99500.09;;;23.26;55.69
34177;BME280;20450;49.074;9.158;2022-08-01T01:21:01;99505.59;;;23.24;55.38
34177;BME280;20450;49.074;9.158;2022-08-01T01:23:49;99508.03;;;23.19;55.53
34177;BME280;20450;49.074;9.158;2022-08-01T01:26:36;99508.25;;;23.18;55.73
34177;BME280;20450;49.074;9.158;2022-08-01T01:29:15;99506.56;;;23.17;55.85
34177;BME280;20450;49.074;9.158;2022-08-01T01:31:48;99510.91;;;23.18;56.47
34177;BME280;20450;49.074;9.158;2022-08-01T01:34:19;99510.00;;;23.11;56.00
34177;BME280;20450;49.074;9.158;2022-08-01T01:36:50;99510.00;;;23.11;56.26
34177;BME280;20450;49.074;9.158;2022-08-01T01:39:23;99504.66;;;23.04;56.50
34177;BME280;20450;49.074;9.158;2022-08-01T01:41:53;99511.41;;;23.07;56.48
34177;BME280;20450;49.074;9.158;2022-08-01T01:44:25;99518.75;;;23.05;56.54
34177;BME280;20450;49.074;9.158;2022-08-01T01:46:54;99514.84;;;23.01;57.36
34177;BME280;20450;49.074;9.158;2022-08-01T01:49:26;99522.00;;;23.00;57.03
34177;BME280;20450;49.074;9.158;2022-08-01T01:51:57;99528.31;;;22.99;57.10
34177;BME280;20450;49.074;9.158;2022-08-01T01:54:32;99524.59;;;22.94;57.51
34177;BME280;20450;49.074;9.158;2022-08-01T01:57:04;99523.38;;;22.96;57.31
34177;BME280;20450;49.074;9.158;2022-08-01T01:59:37;99517.63;;;22.93;57.72
34177;BME280;20450;49.074;9.158;2022-08-01T02:02:07;99520.88;;;22.88;57.85
34177;BME280;20450;49.074;9.158;2022-08-01T02:04:40;99529.28;;;22.92;57.72
34177;BME280;20450;49.074;9.158;2022-08-01T02:07:11;99529.88;;;22.87;58.20
34177;BME280;20450;49.074;9.158;2022-08-01T02:09:42;99526.78;;;22.84;59.06
34177;BME280;20450;49.074;9.158;2022-08-01T02:12:12;99533.09;;;22.83;59.04
34177;BME280;20450;49.074;9.158;2022-08-01T02:14:44;99541.28;;;22.81;58.78
34177;BME280;20450;49.074;9.158;2022-08-01T02:17:16;99537.72;;;22.74;58.99
34177;BME280;20450;49.074;9.158;2022-08-01T02:19:45;99539.13;;;22.70;59.92
34177;BME280;20450;49.074;9.158;2022-08-01T02:22:16;99541.97;;;22.69;59.61
34177;BME280;20450;49.074;9.158;2022-08-01T02:24:50;99538.69;;;22.67;59.94
34177;BME280;20450;49.074;9.158;2022-08-01T02:27:30;99540.09;;;22.63;60.05
34177;BME280;20450;49.074;9.158;2022-08-01T02:30:04;99544.78;;;22.61;60.27
34177;BME280;20450;49.074;9.158;2022-08-01T02:32:37;99541.88;;;22.56;60.73
34177;BME280;20450;49.074;9.158;2022-08-01T02:35:11;99546.78;;;22.59;60.57
34177;BME280;20450;49.074;9.158;2022-08-01T02:37:45;99538.56;;;22.54;60.97
34177;BME280;20450;49.074;9.158;2022-08-01T02:40:16;99541.44;;;22.52;61.21
34177;BME280;20450;49.074;9.158;2022-08-01T02:42:47;99542.63;;;22.50;61.50
34177;BME280;20450;49.074;9.158;2022-08-01T02:45:20;99540.97;;;22.49;61.31
34177;BME280;20450;49.074;9.158;2022-08-01T02:47:54;99542.16;;;22.46;62.01
34177;BME280;20450;49.074;9.158;2022-08-01T02:50:28;99542.72;;;22.42;61.76
34177;BME280;20450;49.074;9.158;2022-08-01T02:52:59;99544.19;;;22.44;61.91
34177;BME280;20450;49.074;9.158;2022-08-01T02:55:32;99535.13;;;22.39;61.86
34177;BME280;20450;49.074;9.158;2022-08-01T02:58:01;99537.59;;;22.40;61.97
34177;BME280;20450;49.074;9.158;2022-08-01T03:00:33;99543.09;;;22.39;62.83
34177;BME280;20450;49.074;9.158;2022-08-01T03:03:05;99538.16;;;22.36;62.74
34177;BME280;20450;49.074;9.158;2022-08-01T03:05:35;99535.25;;;22.31;62.50
34177;BME280;20450;49.074;9.158;2022-08-01T03:08:06;99534.63;;;22.29;62.55
34177;BME280;20450;49.074;9.158;2022-08-01T03:10:42;99539.94;;;22.29;62.57
34177;BME280;20450;49.074;9.158;2022-08-01T03:13:13;99537.66;;;22.26;63.19
34177;BME280;20450;49.074;9.158;2022-08-01T03:15:45;99546.63;;;22.25;63.24
34177;BME280;20450;49.074;9.158;2022-08-01T03:18:15;99546.34;;;22.20;63.51
34177;BME280;20450;49.074;9.158;2022-08-01T03:20:45;99540.16;;;22.13;63.64
34177;BME280;20450;49.074;9.158;2022-08-01T03:23:14;99543.22;;;22.10;63.90
34177;BME280;20450;49.074;9.158;2022-08-01T03:25:44;99561.13;;;22.08;63.71
34177;BME280;20450;49.074;9.158;2022-08-01T03:28:13;99556.84;;;22.07;64.38
34177;BME280;20450;49.074;9.158;2022-08-01T03:30:43;99562.16;;;22.07;64.05
34177;BME280;20450;49.074;9.158;2022-08-01T03:33:13;99558.03;;;22.04;64.16
34177;BME280;20450;49.074;9.158;2022-08-01T03:35:46;99558.88;;;22.05;64.38
34177;BME280;20450;49.074;9.158;2022-08-01T03:38:18;99564.81;;;22.07;64.53
34177;BME280;20450;49.074;9.158;2022-08-01T03:40:52;99565.44;;;22.09;64.27
34177;BME280;20450;49.074;9.158;2022-08-01T03:43:28;99571.56;;;22.09;64.38
34177;BME280;20450;49.074;9.158;2022-08-01T03:46:04;99570.75;;;22.09;64.48
34177;BME280;20450;49.074;9.158;2022-08-01T03:48:39;99572.41;;;22.10;64.32
34177;BME280;20450;49.074;9.158;2022-08-01T03:51:10;99571.56;;;22.09;64.41
34177;BME280;20450;49.074;9.158;2022-08-01T03:53:41;99573.38;;;22.09;64.75
34177;BME280;20450;49.074;9.158;2022-08-01T03:56:12;99572.75;;;22.07;65.35
34177;BME280;20450;49.074;9.158;2022-08-01T03:58:44;99578.06;;;22.07;65.58
34177;BME280;20450;49.074;9.158;2022-08-01T04:01:17;99577.19;;;22.00;66.15
34177;BME280;20450;49.074;9.158;2022-08-01T04:03:45;99574.84;;;21.76;71.10
34177;BME280;20450;49.074;9.158;2022-08-01T04:06:13;99562.75;;;21.59;71.02
34177;BME280;20450;49.074;9.158;2022-08-01T04:08:40;99572.25;;;21.39;69.34
34177;BME280;20450;49.074;9.158;2022-08-01T04:11:08;99585.19;;;21.05;68.24
34177;BME280;20450;49.074;9.158;2022-08-01T04:13:35;99577.81;;;21.15;69.58
34177;BME280;20450;49.074;9.158;2022-08-01T04:16:04;99582.69;;;20.89;70.36
34177;BME280;20450;49.074;9.158;2022-08-01T04:18:33;99575.56;;;20.89;69.30
34177;BME280;20450;49.074;9.158;2022-08-01T04:21:00;99577.25;;;21.05;69.03
34177;BME280;20450;49.074;9.158;2022-08-01T04:23:27;99583.41;;;21.20;68.58
34177;BME280;20450;49.074;9.158;2022-08-01T04:25:59;99581.38;;;21.36;67.96
34177;BME280;20450;49.074;9.158;2022-08-01T04:28:30;99579.94;;;21.63;66.82
34177;BME280;20450;49.074;9.158;2022-08-01T04:31:02;99582.19;;;22.09;65.87
34177;BME280;20450;49.074;9.158;2022-08-01T04:33:33;99579.09;;;22.62;64.23
34177;BME280;20450;49.074;9.158;2022-08-01T04:36:03;99588.22;;;23.23;61.76
34177;BME280;20450;49.074;9.158;2022-08-01T04:38:34;99595.22;;;23.92;60.10
34177;BME280;20450;49.074;9.158;2022-08-01T04:41:06;99585.78;;;24.43;57.53
34177;BME280;20450;49.074;9.158;2022-08-01T04:43:36;99593.03;;;24.88;60.26
34177;BME280;20450;49.074;9.158;2022-08-01T04:46:05;99595.47;;;25.22;59.68
34177;BME280;20450;49.074;9.158;2022-08-01T04:48:37;99593.03;;;25.46;57.55
34177;BME280;20450;49.074;9.158;2022-08-01T04:51:12;99591.97;;;25.60;59.61
34177;BME280;20450;49.074;9.158;2022-08-01T04:53:39;99591.94;;;25.67;59.85
34177;BME280;20450;49.074;9.158;2022-08-01T04:56:06;99598.22;;;26.05;58.70
34177;BME280;20450;49.074;9.158;2022-08-01T04:58:33;99592.69;;;26.44;57.28
34177;BME280;20450;49.074;9.158;2022-08-01T05:01:00;99599.66;;;27.07;55.68
34177;BME280;20450;49.074;9.158;2022-08-01T05:03:28;99603.81;;;27.70;54.10
34177;BME280;20450;49.074;9.158;2022-08-01T05:05:57;99597.84;;;28.40;51.85
34177;BME280;20450;49.074;9.158;2022-08-01T05:08:24;99599.31;;;29.06;49.14
34177;BME280;20450;49.074;9.158;2022-08-01T05:10:51;99606.63;;;29.63;45.46
34177;BME280;20450;49.074;9.158;2022-08-01T05:13:17;99613.16;;;30.30;43.29
34177;BME280;20450;49.074;9.158;2022-08-01T05:15:45;99606.75;;;30.75;42.01
34177;BME280;20450;49.074;9.158;2022-08-01T05:18:13;99612.47;;;31.23;41.16
34177;BME280;20450;49.074;9.158;2022-08-01T05:20:40;99616.97;;;31.56;40.94
34177;BME280;20450;49.074;9.158;2022-08-01T05:23:09;99616.66;;;31.90;39.51
34177;BME280;20450;49.074;9.158;2022-08-01T05:25:44;99616.50;;;32.40;38.58
34177;BME280;20450;49.074;9.158;2022-08-01T05:28:23;99615.63;;;32.82;38.24
34177;BME280;20450;49.074;9.158;2022-08-01T05:30:51;99611.59;;;33.21;37.45
34177;BME280;20450;49.074;9.158;2022-08-01T05:33:18;99613.22;;;33.54;37.24
34177;BME280;20450;49.074;9.158;2022-08-01T05:35:45;99620.00;;;33.61;36.87
34177;BME280;20450;49.074;9.158;2022-08-01T05:39:05;99619.53;;;34.26;35.98
34177;BME280;20450;49.074;9.158;2022-08-01T05:41:35;99629.00;;;34.13;36.06
34177;BME280;20450;49.074;9.158;2022-08-01T05:44:03;99618.69;;;33.64;36.77
34177;BME280;20450;49.074;9.158;2022-08-01T05:46:31;99612.63;;;32.31;38.77
34177;BME280;20450;49.074;9.158;2022-08-01T05:48:59;99610.03;;;31.60;40.90
34177;BME280;20450;49.074;9.158;2022-08-01T05:51:27;99608.31;;;30.71;42.04
34177;BME280;20450;49.074;9.158;2022-08-01T05:53:55;99610.25;;;30.20;43.52
34177;BME280;20450;49.074;9.158;2022-08-01T05:56:24;99614.78;;;30.31;43.62
34177;BME280;20450;49.074;9.158;2022-08-01T05:58:57;99611.50;;;31.18;41.30
34177;BME280;20450;49.074;9.158;2022-08-01T06:01:24;99617.69;;;32.06;40.62
34177;BME280;20450;49.074;9.158;2022-08-01T06:03:51;99623.03;;;32.97;38.68
34177;BME280;20450;49.074;9.158;2022-08-01T06:06:19;99624.03;;;33.54;37.22
34177;BME280;20450;49.074;9.158;2022-08-01T06:08:51;99631.06;;;33.55;36.81
34177;BME280;20450;49.074;9.158;2022-08-01T06:11:18;99629.53;;;34.20;36.44
34177;BME280;20450;49.074;9.158;2022-08-01T06:13:46;99629.50;;;34.87;35.32
34177;BME280;20450;49.074;9.158;2022-08-01T06:16:15;99636.81;;;35.56;34.47
34177;BME280;20450;49.074;9.158;2022-08-01T06:18:42;99624.34;;;35.55;34.15
34177;BME280;20450;49.074;9.158;2022-08-01T06:21:09;99633.25;;;35.81;32.72
34177;BME280;20450;49.074;9.158;2022-08-01T06:23:36;99631.66;;;35.75;32.94
34177;BME280;20450;49.074;9.158;2022-08-01T06:26:03;99638.94;;;35.69;33.12
34177;BME280;20450;49.074;9.158;2022-08-01T06:28:30;99637.03;;;35.85;33.47
34177;BME280;20450;49.074;9.158;2022-08-01T06:30:58;99641.22;;;36.26;33.20
34177;BME280;20450;49.074;9.158;2022-08-01T06:33:26;99634.88;;;35.62;33.67
34177;BME280;20450;49.074;9.158;2022-08-01T06:35:53;99643.38;;;36.39;33.06
34177;BME280;20450;49.074;9.158;2022-08-01T06:38:21;99637.81;;;35.95;32.79
34177;BME280;20450;49.074;9.158;2022-08-01T06:40:48;99637.09;;;35.10;34.17
34177;BME280;20450;49.074;9.158;2022-08-01T06:43:16;99642.25;;;35.16;34.06
34177;BME280;20450;49.074;9.158;2022-08-01T06:45:42;99636.56;;;34.16;35.68
34177;BME280;20450;49.074;9.158;2022-08-01T06:48:11;99637.09;;;33.30;37.26
34177;BME280;20450;49.074;9.158;2022-08-01T06:50:38;99643.03;;;34.10;35.89
34177;BME280;20450;49.074;9.158;2022-08-01T06:53:05;99637.34;;;34.07;36.34
34177;BME280;20450;49.074;9.158;2022-08-01T06:55:32;99648.16;;;34.78;34.60
34177;BME280;20450;49.074;9.158;2022-08-01T06:57:59;99653.38;;;35.25;34.45
34177;BME280;20450;49.074;9.158;2022-08-01T07:00:27;99638.69;;;35.61;33.44
34177;BME280;20450;49.074;9.158;2022-08-01T07:02:55;99648.09;;;36.72;31.89
34177;BME280;20450;49.074;9.158;2022-08-01T07:05:25;99649.94;;;36.81;31.69
34177;BME280;20450;49.074;9.158;2022-08-01T07:07:53;99657.72;;;37.88;30.66
34177;BME280;20450;49.074;9.158;2022-08-01T07:10:20;99653.22;;;38.02;30.03
34177;BME280;20450;49.074;9.158;2022-08-01T07:12:47;99653.56;;;38.80;28.98
34177;BME280;20450;49.074;9.158;2022-08-01T07:15:14;99650.31;;;38.78;29.17
34177;BME280;20450;49.074;9.158;2022-08-01T07:17:42;99645.38;;;39.49;28.74
34177;BME280;20450;49.074;9.158;2022-08-01T07:20:11;99655.03;;;38.54;29.28
34177;BME280;20450;49.074;9.158;2022-08-01T07:22:43;99648.84;;;38.67;29.22
34177;BME280;20450;49.074;9.158;2022-08-01T07:25:14;99650.03;;;38.98;28.74
34177;BME280;20450;49.074;9.158;2022-08-01T07:27:41;99646.13;;;39.04;28.74
34177;BME280;20450;49.074;9.158;2022-08-01T07:30:09;99649.59;;;38.54;29.16
34177;BME280;20450;49.074;9.158;2022-08-01T07:32:36;99648.31;;;38.65;28.73
34177;BME280;20450;49.074;9.158;2022-08-01T07:35:04;99646.66;;;38.27;29.58
34177;BME280;20450;49.074;9.158;2022-08-01T07:37:32;99645.72;;;38.36;30.74
34177;BME280;20450;49.074;9.158;2022-08-01T07:40:17;99649.94;;;38.24;30.07
34177;BME280;20450;49.074;9.158;2022-08-01T07:42:44;99634.06;;;38.12;30.09
34177;BME280;20450;49.074;9.158;2022-08-01T07:45:12;99636.53;;;37.57;30.75
34177;BME280;20450;49.074;9.158;2022-08-01T07:47:40;99636.03;;;37.55;31.05
34177;BME280;20450;49.074;9.158;2022-08-01T07:50:07;99629.50;;;37.56;29.92
34177;BME280;20450;49.074;9.158;2022-08-01T07:52:35;99630.78;;;37.87;29.72
34177;BME280;20450;49.074;9.158;2022-08-01T07:55:02;99636.09;;;37.16;30.84
34177;BME280;20450;49.074;9.158;2022-08-01T07:57:32;99626.94;;;37.36;30.26
34177;BME280;20450;49.074;9.158;2022-08-01T07:59:58;99635.22;;;37.21;30.11
34177;BME280;20450;49.074;9.158;2022-08-01T08:02:26;99629.75;;;36.44;31.73
34177;BME280;20450;49.074;9.158;2022-08-01T08:04:53;99627.88;;;35.46;33.67
34177;BME280;20450;49.074;9.158;2022-08-01T08:07:20;99629.00;;;35.25;33.99
34177;BME280;20450;49.074;9.158;2022-08-01T08:09:47;99624.88;;;34.97;34.20
34177;BME280;20450;49.074;9.158;2022-08-01T08:12:17;99623.41;;;34.40;34.62
34177;BME280;20450;49.074;9.158;2022-08-01T08:14:55;99622.31;;;34.36;34.76
34177;BME280;20450;49.074;9.158;2022-08-01T08:17:23;99622.84;;;34.28;34.84
34177;BME280;20450;49.074;9.158;2022-08-01T08:19:51;99614.13;;;34.16;35.79
34177;BME280;20450;49.074;9.158;2022-08-01T08:22:18;99620.03;;;34.08;35.27
34177;BME280;20450;49.074;9.158;2022-08-01T08:24:45;99624.75;;;33.81;36.10
34177;BME280;20450;49.074;9.158;2022-08-01T08:27:13;99618.28;;;33.82;35.96
34177;BME280;20450;49.074;9.158;2022-08-01T08:29:41;99619.97;;;33.98;35.74
34177;BME280;20450;49.074;9.158;2022-08-01T08:32:09;99609.75;;;34.15;35.51
34177;BME280;20450;49.074;9.158;2022-08-01T08:34:37;99617.50;;;33.86;35.90
34177;BME280;20450;49.074;9.158;2022-08-01T08:37:04;99613.84;;;33.66;35.78
34177;BME280;20450;49.074;9.158;2022-08-01T08:39:31;99605.81;;;33.34;37.87
34177;BME280;20450;49.074;9.158;2022-08-01T08:42:09;99610.72;;;32.79;37.63
34177;BME280;20450;49.074;9.158;2022-08-01T08:44:38;99606.75;;;32.17;38.21
34177;BME280;20450;49.074;9.158;2022-08-01T08:47:13;99599.19;;;31.93;39.71
34177;BME280;20450;49.074;9.158;2022-08-01T08:49:47;99596.13;;;32.27;39.17
34177;BME280;20450;49.074;9.158;2022-08-01T08:52:17;99605.44;;;32.20;38.92
34177;BME280;20450;49.074;9.158;2022-08-01T08:54:47;99602.56;;;32.05;39.56
34177;BME280;20450;49.074;9.158;2022-08-01T08:57:16;99597.91;;;32.22;39.64
34177;BME280;20450;49.074;9.158;2022-08-01T08:59:46;99590.75;;;32.54;39.40
34177;BME280;20450;49.074;9.158;2022-08-01T09:02:14;99592.28;;;32.71;38.47
34177;BME280;20450;49.074;9.158;2022-08-01T09:04:41;99598.41;;;32.88;38.50
34177;BME280;20450;49.074;9.158;2022-08-01T09:07:11;99601.41;;;32.92;37.61
34177;BME280;20450;49.074;9.158;2022-08-01T09:09:38;99603.25;;;32.65;37.98
34177;BME280;20450;49.074;9.158;2022-08-01T09:12:08;99606.16;;;32.80;38.10
34177;BME280;20450;49.074;9.158;2022-08-01T09:14:44;99597.47;;;32.78;38.34
34177;BME280;20450;49.074;9.158;2022-08-01T09:17:14;99598.13;;;32.63;38.85
34177;BME280;20450;49.074;9.158;2022-08-01T09:19:42;99604.47;;;32.26;38.48
34177;BME280;20450;49.074;9.158;2022-08-01T09:22:12;99601.75;;;32.04;38.85
34177;BME280;20450;49.074;9.158;2022-08-01T09:24:41;99606.31;;;32.04;40.01
34177;BME280;20450;49.074;9.158;2022-08-01T09:27:16;99602.94;;;31.92;39.42
34177;BME280;20450;49.074;9.158;2022-08-01T09:29:48;99612.16;;;31.74;39.55
34177;BME280;20450;49.074;9.158;2022-08-01T09:32:30;99608.72;;;31.79;40.21
34177;BME280;20450;49.074;9.158;2022-08-01T09:35:22;99602.31;;;32.06;40.07
34177;BME280;20450;49.074;9.158;2022-08-01T09:38:12;99599.59;;;31.63;40.57
34177;BME280;20450;49.074;9.158;2022-08-01T09:40:45;99599.06;;;31.66;41.01
34177;BME280;20450;49.074;9.158;2022-08-01T09:43:17;99607.28;;;31.55;40.00
34177;BME280;20450;49.074;9.158;2022-08-01T09:45:45;99599.25;;;31.60;40.27
34177;BME280;20450;49.074;9.158;2022-08-01T09:48:18;99591.59;;;31.90;39.65
34177;BME280;20450;49.074;9.158;2022-08-01T09:50:51;99598.31;;;32.30;38.88
34177;BME280;20450;49.074;9.158;2022-08-01T09:53:21;99600.75;;;32.80;38.17
34177;BME280;20450;49.074;9.158;2022-08-01T09:56:08;99597.97;;;32.75;38.12
34177;BME280;20450;49.074;9.158;2022-08-01T09:58:49;99602.75;;;33.26;37.10
34177;BME280;20450;49.074;9.158;2022-08-01T10:01:24;99602.47;;;32.91;37.45
34177;BME280;20450;49.074;9.158;2022-08-01T10:04:08;99599.78;;;32.96;37.04
34177;BME280;20450;49.074;9.158;2022-08-01T10:06:39;99601.16;;;32.93;36.64
34177;BME280;20450;49.074;9.158;2022-08-01T10:09:09;99601.66;;;32.90;37.04
34177;BME280;20450;49.074;9.158;2022-08-01T10:11:41;99605.06;;;32.81;36.98
34177;BME280;20450;49.074;9.158;2022-08-01T10:14:11;99598.69;;;32.92;37.76
34177;BME280;20450;49.074;9.158;2022-08-01T10:16:43;99600.09;;;32.73;37.49
34177;BME280;20450;49.074;9.158;2022-08-01T10:19:21;99596.53;;;32.67;37.47
34177;BME280;20450;49.074;9.158;2022-08-01T10:21:50;99589.56;;;32.45;38.10
34177;BME280;20450;49.074;9.158;2022-08-01T10:24:28;99586.84;;;32.40;38.18
34177;BME280;20450;49.074;9.158;2022-08-01T10:26:58;99585.34;;;32.27;37.70
34177;BME280;20450;49.074;9.158;2022-08-01T10:29:37;99589.19;;;32.15;37.94
34177;BME280;20450;49.074;9.158;2022-08-01T10:32:25;99589.34;;;32.03;39.28
34177;BME280;20450;49.074;9.158;2022-08-01T10:34:56;99590.56;;;32.39;38.13
34177;BME280;20450;49.074;9.158;2022-08-01T10:37:24;99585.53;;;33.00;37.15
34177;BME280;20450;49.074;9.158;2022-08-01T10:39:53;99584.34;;;33.23;36.81
34177;BME280;20450;49.074;9.158;2022-08-01T10:42:42;99594.34;;;33.59;36.13
34177;BME280;20450;49.074;9.158;2022-08-01T10:45:13;99591.00;;;33.47;35.80
34177;BME280;20450;49.074;9.158;2022-08-01T10:47:47;99591.03;;;33.15;36.20
34177;BME280;20450;49.074;9.158;2022-08-01T10:50:33;99585.28;;;33.07;36.45
34177;BME280;20450;49.074;9.158;2022-08-01T10:53:12;99590.63;;;32.44;37.40
34177;BME280;20450;49.074;9.158;2022-08-01T10:55:51;99591.44;;;31.58;38.92
34177;BME280;20450;49.074;9.158;2022-08-01T10:58:30;99585.06;;;31.48;39.31
34177;BME280;20450;49.074;9.158;2022-08-01T11:01:17;99579.03;;;31.41;39.85
34177;BME280;20450;49.074;9.158;2022-08-01T11:04:08;99589.59;;;31.26;41.20
34177;BME280;20450;49.074;9.158;2022-08-01T11:07:05;99583.53;;;31.90;39.66
34177;BME280;20450;49.074;9.158;2022-08-01T11:09:41;99576.72;;;32.09;38.99
34177;BME280;20450;49.074;9.158;2022-08-01T11:12:17;99579.75;;;32.34;38.37
34177;BME280;20450;49.074;9.158;2022-08-01T11:15:22;99577.50;;;32.79;38.06
34177;BME280;20450;49.074;9.158;2022-08-01T11:17:56;99571.81;;;32.49;38.57
34177;BME280;20450;49.074;9.158;2022-08-01T11:20:27;99572.81;;;32.43;39.39
34177;BME280;20450;49.074;9.158;2022-08-01T11:23:16;99574.22;;;32.24;39.83
34177;BME280;20450;49.074;9.158;2022-08-01T11:26:07;99560.88;;;31.91;39.50
34177;BME280;20450;49.074;9.158;2022-08-01T11:28:37;99574.28;;;31.48;40.03
34177;BME280;20450;49.074;9.158;2022-08-01T11:31:29;99574.16;;;31.38;40.41
34177;BME280;20450;49.074;9.158;2022-08-01T11:34:04;99572.88;;;31.62;40.14
34177;BME280;20450;49.074;9.158;2022-08-01T11:36:32;99566.97;;;31.65;40.75
34177;BME280;20450;49.074;9.158;2022-08-01T11:39:20;99566.84;;;32.14;39.56
34177;BME280;20450;49.074;9.158;2022-08-01T11:41:48;99560.69;;;32.45;38.22
34177;BME280;20450;49.074;9.158;2022-08-01T11:44:18;99562.72;;;33.23;37.03
34177;BME280;20450;49.074;9.158;2022-08-01T11:46:58;99555.69;;;34.25;35.76
34177;BME280;20450;49.074;9.158;2022-08-01T11:49:45;99548.75;;;34.69;35.44
34177;BME280;20450;49.074;9.158;2022-08-01T11:52:17;99545.78;;;35.25;33.80
34177;BME280;20450;49.074;9.158;2022-08-01T11:54:49;99544.13;;;35.19;34.09
34177;BME280;20450;49.074;9.158;2022-08-01T11:57:21;99544.66;;;35.46;33.81
34177;BME280;20450;49.074;9.158;2022-08-01T12:00:03;99546.59;;;35.16;33.69
34177;BME280;20450;49.074;9.158;2022-08-01T12:02:41;99545.53;;;35.02;33.75
34177;BME280;20450;49.074;9.158;2022-08-01T12:05:12;99536.28;;;34.53;34.23
34177;BME280;20450;49.074;9.158;2022-08-01T12:07:42;99539.16;;;34.11;33.97
34177;BME280;20450;49.074;9.158;2022-08-01T12:10:12;99533.72;;;33.96;34.45
34177;BME280;20450;49.074;9.158;2022-08-01T12:12:44;99521.50;;;33.89;35.23
34177;BME280;20450;49.074;9.158;2022-08-01T12:15:13;99517.06;;;33.68;36.06
34177;BME280;20450;49.074;9.158;2022-08-01T12:17:41;99527.97;;;33.78;35.56
34177;BME280;20450;49.074;9.158;2022-08-01T12:20:25;99520.97;;;33.35;36.29
34177;BME280;20450;49.074;9.158;2022-08-01T12:22:57;99517.78;;;33.07;37.64
34177;BME280;20450;49.074;9.158;2022-08-01T12:25:28;99518.38;;;33.14;38.00
34177;BME280;20450;49.074;9.158;2022-08-01T12:27:59;99519.47;;;33.18;37.27
34177;BME280;20450;49.074;9.158;2022-08-01T12:30:27;99516.41;;;32.73;37.59
34177;BME280;20450;49.074;9.158;2022-08-01T12:32:55;99523.59;;;32.89;38.69
34177;BME280;20450;49.074;9.158;2022-08-01T12:35:23;99522.72;;;32.78;37.78
34177;BME280;20450;49.074;9.158;2022-08-01T12:37:53;99519.13;;;32.73;37.73
34177;BME280;20450;49.074;9.158;2022-08-01T12:40:23;99521.97;;;32.88;37.30
34177;BME280;20450;49.074;9.158;2022-08-01T12:42:55;99522.63;;;33.05;37.20
34177;BME280;20450;49.074;9.158;2022-08-01T12:45:25;99515.56;;;32.67;37.96
34177;BME280;20450;49.074;9.158;2022-08-01T12:47:54;99514.22;;;31.90;38.95
34177;BME280;20450;49.074;9.158;2022-08-01T12:50:27;99510.09;;;32.04;38.98
34177;BME280;20450;49.074;9.158;2022-08-01T12:53:00;99505.41;;;31.95;39.81
34177;BME280;20450;49.074;9.158;2022-08-01T12:55:28;99514.56;;;31.94;40.23
34177;BME280;20450;49.074;9.158;2022-08-01T12:58:07;99503.44;;;31.69;39.42
34177;BME280;20450;49.074;9.158;2022-08-01T13:00:44;99504.81;;;31.71;39.84
34177;BME280;20450;49.074;9.158;2022-08-01T13:03:14;99502.25;;;31.60;39.85
34177;BME280;20450;49.074;9.158;2022-08-01T13:05:44;99502.53;;;31.80;39.88
34177;BME280;20450;49.074;9.158;2022-08-01T13:08:14;99509.91;;;31.68;40.04
34177;BME280;20450;49.074;9.158;2022-08-01T13:10:43;99506.00;;;31.59;40.17
34177;BME280;20450;49.074;9.158;2022-08-01T13:13:14;99504.31;;;31.53;39.91
34177;BME280;20450;49.074;9.158;2022-08-01T13:16:04;99495.03;;;31.65;39.97
34177;BME280;20450;49.074;9.158;2022-08-01T13:18:35;99493.72;;;31.68;39.83
34177;BME280;20450;49.074;9.158;2022-08-01T13:21:10;99502.19;;;31.55;39.61
34177;BME280;20450;49.074;9.158;2022-08-01T13:23:39;99501.81;;;31.46;40.35